createdAt,value
2022-08-28T00:02:02.486Z,100408.94
2022-08-28T00:04:32.010Z,100525.66
2022-08-28T00:07:01.254Z,100502.28
2022-08-28T00:09:30.484Z,100536.97
2022-08-28T00:12:01.161Z,100465.06
2022-08-28T00:14:30.726Z,100512.72
2022-08-28T00:16:59.946Z,100478.97
2022-08-28T00:19:30.221Z,100085.25
2022-08-28T00:21:59.386Z,100552.59
2022-08-28T00:24:28.670Z,100552.53
2022-08-28T00:27:15.082Z,100426.56
2022-08-28T00:29:50.282Z,100560.16
2022-08-28T00:32:19.480Z,100326.44
2022-08-28T00:34:48.805Z,100420.72
2022-08-28T00:37:18.104Z,100459.91
2022-08-28T00:39:48.350Z,100550.28
2022-08-28T00:42:17.762Z,100311.94
2022-08-28T00:44:47.101Z,100428.38
2022-08-28T00:47:17.950Z,100488.97
2022-08-28T00:49:51.849Z,100555.56
2022-08-28T00:52:22.572Z,100548.44
2022-08-28T00:54:59.352Z,100273.84
2022-08-28T00:57:32.781Z,100562.34
2022-08-28T01:00:02.124Z,100553.53
2022-08-28T01:02:33.015Z,100555.19
2022-08-28T01:05:02.509Z,100563.00
2022-08-28T01:07:31.951Z,100560.25
2022-08-28T01:10:01.530Z,100313.91
2022-08-28T01:12:33.924Z,100485.84
2022-08-28T01:15:09.842Z,100564.25
2022-08-28T01:17:43.197Z,100563.25
2022-08-28T01:20:17.134Z,100521.44
2022-08-28T01:22:54.702Z,100563.75
2022-08-28T01:25:29.414Z,100540.19
2022-08-28T01:27:59.994Z,100569.47
2022-08-28T01:30:29.975Z,100477.97
2022-08-28T01:32:59.957Z,100576.78
2022-08-28T01:35:32.192Z,100565.34
2022-08-28T01:38:01.821Z,100416.84
2022-08-28T01:40:36.912Z,100561.91
2022-08-28T01:43:11.060Z,100502.63
2022-08-28T01:45:40.519Z,100544.34
2022-08-28T01:48:10.826Z,100406.75
2022-08-28T01:50:41.129Z,100520.19
2022-08-28T01:53:12.515Z,100574.31
2022-08-28T01:55:44.070Z,100510.31
2022-08-28T01:58:14.972Z,100589.28
2022-08-28T02:00:44.893Z,100602.03
2022-08-28T02:03:14.435Z,100584.09
2022-08-28T02:05:44.096Z,100383.38
2022-08-28T02:08:13.490Z,100585.84
2022-08-28T02:10:45.540Z,100567.69
2022-08-28T02:13:15.054Z,100434.50
2022-08-28T02:15:45.209Z,100494.63
2022-08-28T02:18:14.940Z,100486.41
2022-08-28T02:20:44.771Z,100501.81
2022-08-28T02:23:14.114Z,100468.66
2022-08-28T02:25:44.847Z,100575.34
2022-08-28T02:28:14.214Z,100443.75
2022-08-28T02:30:43.713Z,100570.44
2022-08-28T02:33:13.235Z,100597.69
2022-08-28T02:35:43.376Z,100575.19
2022-08-28T02:38:13.004Z,100577.41
2022-08-28T02:40:45.760Z,100585.16
2022-08-28T02:43:16.140Z,100581.47
2022-08-28T02:45:45.376Z,100393.22
2022-08-28T02:48:18.112Z,100377.44
2022-08-28T02:50:47.669Z,100555.63
2022-08-28T02:53:16.878Z,100268.53
2022-08-28T02:55:47.798Z,100505.97
2022-08-28T02:58:16.969Z,100556.16
2022-08-28T03:00:46.232Z,100484.78
2022-08-28T03:03:15.681Z,100496.56
2022-08-28T03:05:50.082Z,100418.25
2022-08-28T03:08:19.921Z,100440.06
2022-08-28T03:10:58.089Z,100578.72
2022-08-28T03:13:30.713Z,100575.56
2022-08-28T03:16:00.814Z,100560.38
2022-08-28T03:18:30.744Z,100575.19
2022-08-28T03:20:59.830Z,100540.16
2022-08-28T03:23:28.028Z,100554.78
2022-08-28T03:26:02.468Z,100558.34
2022-08-28T03:28:34.140Z,100542.63
2022-08-28T03:31:03.586Z,100541.00
2022-08-28T03:33:32.774Z,100577.91
2022-08-28T03:36:04.648Z,100490.50
2022-08-28T03:38:34.318Z,100573.81
2022-08-28T03:41:05.370Z,100552.94
2022-08-28T03:43:34.566Z,100544.19
2022-08-28T03:46:06.267Z,100558.28
2022-08-28T03:48:38.494Z,100572.22
2022-08-28T03:51:13.238Z,100590.09
2022-08-28T03:53:42.853Z,100565.97
2022-08-28T03:56:16.541Z,100551.94
2022-08-28T03:58:45.649Z,100576.50
2022-08-28T04:01:14.880Z,100555.28
2022-08-28T04:03:44.040Z,100581.25
2022-08-28T04:06:13.714Z,100573.06
2022-08-28T04:08:43.455Z,100556.50
2022-08-28T04:11:14.222Z,100570.75
2022-08-28T04:13:43.544Z,100571.75
2022-08-28T04:16:19.441Z,100557.56
2022-08-28T04:18:50.513Z,100531.09
2022-08-28T04:21:24.030Z,100561.28
2022-08-28T04:23:53.359Z,100562.69
2022-08-28T04:26:27.173Z,100562.44
2022-08-28T04:28:57.639Z,100568.50
2022-08-28T04:31:31.852Z,100565.16
2022-08-28T04:34:02.303Z,100533.00
2022-08-28T04:36:31.728Z,100566.56
2022-08-28T04:39:00.859Z,100532.31
2022-08-28T04:41:31.709Z,100554.38
2022-08-28T04:44:04.178Z,100490.97
2022-08-28T04:46:35.301Z,100553.34
2022-08-28T04:49:06.308Z,100497.91
2022-08-28T04:51:40.010Z,100562.56
2022-08-28T04:54:11.196Z,100567.84
2022-08-28T04:56:42.940Z,100549.13
2022-08-28T04:59:12.624Z,100577.53
2022-08-28T05:01:44.726Z,100579.31
2022-08-28T05:04:14.911Z,100570.50
2022-08-28T05:06:49.282Z,100590.94
2022-08-28T05:09:20.822Z,100570.66
2022-08-28T05:11:53.863Z,100554.41
2022-08-28T05:14:23.446Z,100561.38
2022-08-28T05:16:55.949Z,100561.19
2022-08-28T05:19:25.912Z,100556.81
2022-08-28T05:21:58.125Z,100563.81
2022-08-28T05:24:27.557Z,100527.22
2022-08-28T05:27:03.275Z,100561.53
2022-08-28T05:29:32.011Z,100554.09
2022-08-28T05:32:01.386Z,100495.81
2022-08-28T05:34:30.684Z,100514.13
2022-08-28T05:37:03.400Z,100559.63
2022-08-28T05:39:35.191Z,100409.41
2022-08-28T05:42:12.231Z,100400.34
2022-08-28T05:44:41.417Z,100553.63
2022-08-28T05:47:11.264Z,100482.38
2022-08-28T05:49:43.866Z,100501.81
2022-08-28T05:52:13.138Z,100564.84
2022-08-28T05:54:48.281Z,100526.53
2022-08-28T05:57:18.900Z,100554.66
2022-08-28T05:59:48.074Z,100534.63
2022-08-28T06:02:20.861Z,100545.78
2022-08-28T06:04:54.106Z,100546.00
2022-08-28T06:07:23.507Z,100547.03
2022-08-28T06:09:52.678Z,100540.75
2022-08-28T06:12:24.201Z,100543.56
2022-08-28T06:15:19.056Z,100551.81
2022-08-28T06:17:52.773Z,100330.19
2022-08-28T06:20:21.962Z,100552.84
2022-08-28T06:22:54.867Z,100540.00
2022-08-28T06:25:26.652Z,100437.41
2022-08-28T06:27:57.429Z,100547.69
2022-08-28T06:30:26.718Z,100509.00
2022-08-28T06:33:16.782Z,100528.06
2022-08-28T06:35:49.696Z,100550.13
2022-08-28T06:38:19.988Z,100543.19
2022-08-28T06:40:51.032Z,100564.06
2022-08-28T06:43:26.446Z,100565.69
2022-08-28T06:45:57.553Z,100544.66
2022-08-28T06:48:30.606Z,100556.84
2022-08-28T06:51:00.372Z,100546.56
2022-08-28T06:53:31.363Z,100502.69
2022-08-28T06:56:02.801Z,100533.78
2022-08-28T06:58:36.162Z,100559.69
2022-08-28T07:01:07.675Z,100539.31
2022-08-28T07:03:36.931Z,100557.53
2022-08-28T07:06:16.578Z,100558.94
2022-08-28T07:08:46.729Z,100567.94
2022-08-28T07:11:25.954Z,100547.63
2022-08-28T07:14:03.485Z,100546.06
2022-08-28T07:16:36.098Z,100568.34
2022-08-28T07:19:05.926Z,100558.31
2022-08-28T07:21:39.100Z,100555.03
2022-08-28T07:24:09.102Z,100556.78
2022-08-28T07:26:38.675Z,100543.00
2022-08-28T07:29:11.672Z,100494.94
2022-08-28T07:31:42.367Z,100547.47
2022-08-28T07:34:15.031Z,100556.81
2022-08-28T07:36:46.666Z,100554.16
2022-08-28T07:39:17.601Z,100555.13
2022-08-28T07:41:48.034Z,100556.56
2022-08-28T07:44:37.030Z,100509.16
2022-08-28T07:47:08.836Z,100523.41
2022-08-28T07:49:38.285Z,100532.66
2022-08-28T07:52:08.537Z,100530.94
2022-08-28T07:54:38.027Z,100548.69
2022-08-28T07:57:09.112Z,100571.72
2022-08-28T07:59:40.384Z,100551.94
2022-08-28T08:02:12.457Z,100541.75
2022-08-28T08:04:41.729Z,100533.69
2022-08-28T08:07:13.294Z,100569.94
2022-08-28T08:09:44.046Z,100556.41
2022-08-28T08:12:14.788Z,100558.94
2022-08-28T08:14:46.125Z,100593.63
2022-08-28T08:17:15.643Z,100583.19
2022-08-28T08:19:44.815Z,100555.44
2022-08-28T08:22:14.551Z,100563.16
2022-08-28T08:24:43.811Z,100585.44
2022-08-28T08:27:13.570Z,100539.13
2022-08-28T08:29:42.797Z,100565.41
2022-08-28T08:32:14.038Z,100577.34
2022-08-28T08:34:46.245Z,100575.13
2022-08-28T08:37:15.558Z,100568.09
2022-08-28T08:39:48.005Z,100552.78
2022-08-28T08:42:24.967Z,100564.50
2022-08-28T08:44:56.407Z,100551.28
2022-08-28T08:47:34.803Z,100556.91
2022-08-28T08:50:07.586Z,100559.06
2022-08-28T08:52:52.021Z,100561.94
2022-08-28T08:55:27.777Z,100537.94
2022-08-28T08:58:04.074Z,100541.94
2022-08-28T09:00:39.974Z,100486.78
2022-08-28T09:03:17.575Z,100536.25
2022-08-28T09:05:51.504Z,100549.38
2022-08-28T09:08:31.732Z,100550.91
2022-08-28T09:11:16.113Z,100537.38
2022-08-28T09:13:56.741Z,100549.84
2022-08-28T09:16:33.250Z,100518.34
2022-08-28T09:19:06.874Z,100552.88
2022-08-28T09:21:40.540Z,100521.03
2022-08-28T09:24:22.790Z,100412.56
2022-08-28T09:27:03.825Z,100524.34
2022-08-28T09:29:36.056Z,100450.34
2022-08-28T09:32:25.946Z,100505.28
2022-08-28T09:35:08.837Z,100512.19
2022-08-28T09:37:39.047Z,100537.88
2022-08-28T09:40:25.171Z,100522.44
2022-08-28T09:43:28.767Z,100531.69
2022-08-28T09:46:02.081Z,100535.56
2022-08-28T09:48:38.423Z,100475.06
2022-08-28T09:51:10.891Z,100480.34
2022-08-28T09:53:55.288Z,100473.25
2022-08-28T09:56:29.399Z,100519.72
2022-08-28T09:59:04.379Z,100489.13
2022-08-28T10:01:55.794Z,100509.00
2022-08-28T10:04:53.282Z,100479.56
2022-08-28T10:07:32.806Z,100494.47
2022-08-28T10:10:18.118Z,100514.50
2022-08-28T10:12:55.084Z,100513.72
2022-08-28T10:15:31.260Z,100457.00
2022-08-28T10:18:29.369Z,100510.78
2022-08-28T10:21:10.915Z,100518.47
2022-08-28T10:24:05.847Z,100521.06
2022-08-28T10:26:41.422Z,100519.97
2022-08-28T10:29:28.608Z,100522.41
2022-08-28T10:32:12.525Z,100525.19
2022-08-28T10:35:02.063Z,100465.06
2022-08-28T10:37:45.255Z,100516.88
2022-08-28T10:40:20.281Z,100410.41
2022-08-28T10:42:55.518Z,100529.44
2022-08-28T10:45:27.548Z,100518.47
2022-08-28T10:48:01.718Z,100491.47
2022-08-28T10:50:35.574Z,100506.03
2022-08-28T10:53:08.693Z,100513.44
2022-08-28T10:55:45.443Z,100518.59
2022-08-28T10:58:23.874Z,100507.66
2022-08-28T11:00:56.032Z,100498.00
2022-08-28T11:03:35.431Z,100512.53
2022-08-28T11:06:11.847Z,100491.25
2022-08-28T11:08:46.415Z,100512.16
2022-08-28T11:11:37.143Z,100504.25
2022-08-28T11:14:12.449Z,100341.25
2022-08-28T11:16:47.625Z,100510.34
2022-08-28T11:19:52.428Z,100489.44
2022-08-28T11:22:24.882Z,100494.56
2022-08-28T11:25:06.546Z,100496.72
2022-08-28T11:27:41.385Z,100462.03
2022-08-28T11:30:42.263Z,100510.34
2022-08-28T11:33:42.462Z,100510.22
2022-08-28T11:36:13.775Z,100511.00
2022-08-28T11:39:08.147Z,100520.31
2022-08-28T11:41:39.489Z,100508.81
2022-08-28T11:44:30.474Z,100511.22
2022-08-28T11:47:37.767Z,100507.91
2022-08-28T11:50:20.595Z,100503.25
2022-08-28T11:53:21.779Z,100471.94
2022-08-28T11:56:12.872Z,100512.38
2022-08-28T11:58:53.840Z,100467.41
2022-08-28T12:01:37.722Z,100495.41
2022-08-28T12:04:15.590Z,100506.31
2022-08-28T12:06:50.090Z,100498.88
2022-08-28T12:09:39.321Z,100502.41
2022-08-28T12:12:13.968Z,100483.50
2022-08-28T12:15:00.579Z,100511.84
2022-08-28T12:17:59.510Z,100451.91
2022-08-28T12:20:40.995Z,100499.31
2022-08-28T12:23:37.593Z,100441.31
2022-08-28T12:26:19.198Z,100472.41
2022-08-28T12:28:51.162Z,100499.00
2022-08-28T12:32:15.537Z,100445.09
2022-08-28T12:35:22.655Z,100448.72
2022-08-28T12:38:04.682Z,100500.47
2022-08-28T12:40:50.798Z,100500.69
2022-08-28T12:43:46.676Z,100503.50
2022-08-28T12:46:23.871Z,100521.63
2022-08-28T12:48:55.061Z,100459.44
2022-08-28T12:51:29.937Z,100338.81
2022-08-28T12:54:02.563Z,100505.47
2022-08-28T12:56:35.601Z,100510.97
2022-08-28T12:59:35.208Z,100496.06
2022-08-28T13:02:06.365Z,100509.88
2022-08-28T13:04:39.239Z,100501.63
2022-08-28T13:07:12.557Z,100512.13
2022-08-28T13:09:48.523Z,100511.53
2022-08-28T13:12:32.022Z,100518.75
2022-08-28T13:15:24.449Z,100485.09
2022-08-28T13:17:57.132Z,100470.38
2022-08-28T13:20:28.214Z,100499.84
2022-08-28T13:22:58.030Z,100499.50
2022-08-28T13:25:31.448Z,100524.78
2022-08-28T13:28:03.532Z,100505.28
2022-08-28T13:30:35.316Z,100516.63
2022-08-28T13:33:08.286Z,100474.41
2022-08-28T13:35:48.090Z,100534.06
2022-08-28T13:38:21.805Z,100343.34
2022-08-28T13:41:06.503Z,100412.03
2022-08-28T13:43:49.169Z,100174.47
2022-08-28T13:46:20.710Z,100529.09
2022-08-28T13:48:49.963Z,100526.50
2022-08-28T13:51:29.866Z,100523.91
2022-08-28T13:53:59.265Z,100511.94
2022-08-28T13:56:31.423Z,100514.69
2022-08-28T13:59:00.596Z,100523.31
2022-08-28T14:01:49.994Z,100521.50
2022-08-28T14:04:18.129Z,100525.19
2022-08-28T14:06:47.323Z,100485.75
2022-08-28T14:09:17.750Z,100527.94
2022-08-28T14:11:50.029Z,100472.09
2022-08-28T14:14:20.304Z,100516.59
2022-08-28T14:16:51.207Z,100528.78
2022-08-28T14:19:27.546Z,100518.13
2022-08-28T14:21:57.462Z,100512.88
2022-08-28T14:24:28.490Z,100519.09
2022-08-28T14:26:59.456Z,100514.63
2022-08-28T14:29:28.823Z,100512.88
2022-08-28T14:31:58.058Z,100476.09
2022-08-28T14:34:30.085Z,100491.75
2022-08-28T14:36:59.311Z,100517.34
2022-08-28T14:39:29.570Z,100450.31
2022-08-28T14:42:00.359Z,100439.44
2022-08-28T14:44:29.524Z,100496.06
2022-08-28T14:47:05.926Z,100471.81
2022-08-28T14:49:35.078Z,100422.56
2022-08-28T14:52:04.415Z,100521.84
2022-08-28T14:54:33.709Z,100518.31
2022-08-28T14:57:04.559Z,100502.66
2022-08-28T14:59:42.935Z,100517.34
2022-08-28T15:02:16.053Z,100518.22
2022-08-28T15:04:45.361Z,100521.75
2022-08-28T15:07:15.760Z,100527.09
2022-08-28T15:09:47.256Z,100458.94
2022-08-28T15:12:18.521Z,100518.22
2022-08-28T15:14:55.102Z,100462.38
2022-08-28T15:17:33.952Z,100496.75
2022-08-28T15:20:04.335Z,100447.09
2022-08-28T15:22:35.982Z,100509.72
2022-08-28T15:25:06.309Z,100526.97
2022-08-28T15:27:37.097Z,100513.41
2022-08-28T15:30:07.816Z,100457.03
2022-08-28T15:32:39.991Z,100477.41
2022-08-28T15:35:10.103Z,100538.50
2022-08-28T15:37:39.265Z,100500.00
2022-08-28T15:40:23.354Z,100545.53
2022-08-28T15:42:56.356Z,100544.69
2022-08-28T15:45:49.550Z,100483.16
2022-08-28T15:48:22.011Z,100519.75
2022-08-28T15:50:51.772Z,100530.53
2022-08-28T15:53:21.787Z,100503.75
2022-08-28T15:55:56.967Z,100537.53
2022-08-28T15:58:27.611Z,100352.91
2022-08-28T16:00:59.773Z,100459.78
2022-08-28T16:03:28.849Z,100510.06
2022-08-28T16:05:57.980Z,100540.22
2022-08-28T16:08:31.866Z,100481.53
2022-08-28T16:11:00.989Z,100535.72
2022-08-28T16:13:32.041Z,100535.72
2022-08-28T16:16:01.318Z,100536.63
2022-08-28T16:18:30.509Z,100532.22
2022-08-28T16:21:04.909Z,100526.91
2022-08-28T16:23:37.112Z,100523.38
2022-08-28T16:26:08.045Z,100461.50
2022-08-28T16:28:39.640Z,100476.44
2022-08-28T16:31:19.233Z,100514.09
2022-08-28T16:33:50.385Z,100515.81
2022-08-28T16:36:23.768Z,100431.00
2022-08-28T16:39:03.471Z,100525.84
2022-08-28T16:41:34.347Z,100512.72
2022-08-28T16:44:05.359Z,100519.94
2022-08-28T16:46:36.566Z,100472.25
2022-08-28T16:49:05.781Z,100513.91
2022-08-28T16:51:35.187Z,100508.66
2022-08-28T16:54:04.355Z,100462.84
2022-08-28T16:56:33.529Z,100497.25
2022-08-28T16:59:04.131Z,100499.91
2022-08-28T17:01:42.629Z,100465.63
2022-08-28T17:04:13.244Z,100465.53
2022-08-28T17:06:45.808Z,100478.53
2022-08-28T17:09:15.014Z,100475.06
2022-08-28T17:11:44.110Z,100475.94
2022-08-28T17:14:22.579Z,100480.38
2022-08-28T17:16:53.470Z,100457.88
2022-08-28T17:19:23.698Z,100482.03
2022-08-28T17:22:10.203Z,100475.88
2022-08-28T17:24:40.373Z,100458.72
2022-08-28T17:27:09.748Z,100430.41
2022-08-28T17:29:40.762Z,100471.31
2022-08-28T17:32:09.949Z,100466.00
2022-08-28T17:34:41.606Z,100468.66
2022-08-28T17:37:11.448Z,100468.66
2022-08-28T17:39:40.724Z,100459.69
2022-08-28T17:42:09.927Z,100476.53
2022-08-28T17:44:40.551Z,100453.69
2022-08-28T17:47:09.933Z,100452.91
2022-08-28T17:49:39.101Z,100415.91
2022-08-28T17:52:08.279Z,100428.69
2022-08-28T17:54:37.367Z,100437.97
2022-08-28T17:57:06.890Z,100423.91
2022-08-28T17:59:37.029Z,100457.38
2022-08-28T18:02:07.900Z,100450.94
2022-08-28T18:04:38.240Z,100442.03
2022-08-28T18:07:07.517Z,100452.59
2022-08-28T18:09:36.667Z,100443.31
2022-08-28T18:12:06.804Z,100447.28
2022-08-28T18:14:42.081Z,100443.66
2022-08-28T18:17:13.895Z,100410.66
2022-08-28T18:19:43.007Z,100421.84
2022-08-28T18:22:13.027Z,100415.00
2022-08-28T18:24:42.510Z,100434.63
2022-08-28T18:27:12.200Z,100412.22
2022-08-28T18:29:41.291Z,100423.88
2022-08-28T18:32:12.549Z,100426.56
2022-08-28T18:34:41.711Z,100420.31
2022-08-28T18:37:11.748Z,100399.69
2022-08-28T18:39:42.243Z,100355.22
2022-08-28T18:42:13.075Z,100374.88
2022-08-28T18:44:42.183Z,100414.13
2022-08-28T18:47:12.960Z,100399.50
2022-08-28T18:49:43.468Z,100416.78
2022-08-28T18:52:12.979Z,100406.22
2022-08-28T18:54:42.066Z,100387.25
2022-08-28T18:57:12.868Z,100416.69
2022-08-28T18:59:41.995Z,100350.06
2022-08-28T19:02:13.386Z,100411.19
2022-08-28T19:04:45.031Z,100394.69
2022-08-28T19:07:14.728Z,100406.63
2022-08-28T19:09:43.870Z,100379.75
2022-08-28T19:12:12.972Z,100390.03
2022-08-28T19:14:42.697Z,100402.00
2022-08-28T19:17:15.131Z,100389.88
2022-08-28T19:19:47.024Z,100398.56
2022-08-28T19:22:16.216Z,100391.94
2022-08-28T19:24:45.622Z,100393.47
2022-08-28T19:27:15.032Z,100395.56
2022-08-28T19:29:45.076Z,100394.97
2022-08-28T19:32:15.957Z,100350.50
2022-08-28T19:34:45.084Z,100393.00
2022-08-28T19:37:14.970Z,100367.47
2022-08-28T19:39:51.031Z,100398.91
2022-08-28T19:42:26.555Z,100390.44
2022-08-28T19:44:59.624Z,100382.31
2022-08-28T19:47:35.585Z,100360.00
2022-08-28T19:50:12.987Z,100393.38
2022-08-28T19:52:43.647Z,100387.56
2022-08-28T19:55:18.694Z,100383.50
2022-08-28T19:57:48.997Z,100375.88
2022-08-28T20:00:19.816Z,100376.19
2022-08-28T20:02:52.687Z,100381.84
2022-08-28T20:05:22.509Z,100389.97
2022-08-28T20:07:51.904Z,100383.09
2022-08-28T20:10:21.796Z,100318.66
2022-08-28T20:12:50.967Z,100348.88
2022-08-28T20:15:21.383Z,100333.75
2022-08-28T20:17:52.748Z,100381.38
2022-08-28T20:20:27.990Z,100365.38
2022-08-28T20:22:59.971Z,100373.28
2022-08-28T20:25:31.719Z,100376.25
2022-08-28T20:28:01.832Z,100372.31
2022-08-28T20:30:31.162Z,100360.59
2022-08-28T20:33:03.032Z,100382.75
2022-08-28T20:35:32.282Z,100334.81
2022-08-28T20:38:01.376Z,100380.28
2022-08-28T20:40:30.588Z,100375.06
2022-08-28T20:43:00.837Z,100369.84
2022-08-28T20:45:30.506Z,100362.34
2022-08-28T20:48:01.327Z,100317.78
2022-08-28T20:50:30.587Z,100324.09
2022-08-28T20:53:03.146Z,100357.78
2022-08-28T20:55:32.349Z,100368.25
2022-08-28T20:58:01.539Z,100348.47
2022-08-28T21:00:30.857Z,100343.34
2022-08-28T21:03:01.879Z,100347.91
2022-08-28T21:05:33.673Z,100353.94
2022-08-28T21:08:03.326Z,100350.00
2022-08-28T21:10:32.534Z,100357.69
2022-08-28T21:13:01.716Z,100351.66
2022-08-28T21:15:31.531Z,100349.94
2022-08-28T21:18:02.483Z,100352.66
2022-08-28T21:20:31.698Z,100351.81
2022-08-28T21:23:00.807Z,100346.66
2022-08-28T21:25:30.968Z,100337.91
2022-08-28T21:28:00.137Z,100313.19
2022-08-28T21:30:33.798Z,100347.09
2022-08-28T21:33:05.695Z,100334.94
2022-08-28T21:35:34.850Z,100344.09
2022-08-28T21:38:04.027Z,100316.91
2022-08-28T21:40:33.290Z,100304.88
2022-08-28T21:43:02.446Z,100317.03
2022-08-28T21:45:31.515Z,100307.72
2022-08-28T21:48:00.722Z,100337.94
2022-08-28T21:50:31.341Z,100315.22
2022-08-28T21:53:00.569Z,100338.44
2022-08-28T21:55:29.707Z,100328.53
2022-08-28T21:57:58.818Z,100332.44
2022-08-28T22:00:28.026Z,100292.47
2022-08-28T22:02:57.201Z,100282.00
2022-08-28T22:05:28.731Z,100282.78
2022-08-28T22:07:59.416Z,100297.25
2022-08-28T22:10:28.541Z,100314.81
2022-08-28T22:12:57.693Z,100331.03
2022-08-28T22:15:26.830Z,100321.75
2022-08-28T22:17:55.932Z,100329.03
2022-08-28T22:20:25.218Z,100331.56
2022-08-28T22:23:11.548Z,100333.03
2022-08-28T22:25:44.210Z,100309.53
2022-08-28T22:28:13.590Z,100286.03
2022-08-28T22:30:42.833Z,100320.63
2022-08-28T22:33:12.472Z,100272.13
2022-08-28T22:35:41.694Z,100310.47
2022-08-28T22:38:11.535Z,100314.16
2022-08-28T22:40:40.769Z,100296.81
2022-08-28T22:43:11.409Z,100310.78
2022-08-28T22:45:41.153Z,100303.44
2022-08-28T22:48:10.871Z,100272.75
2022-08-28T22:50:40.168Z,100314.34
2022-08-28T22:53:09.521Z,100285.91
2022-08-28T22:55:43.213Z,100303.31
2022-08-28T22:58:14.729Z,100293.31
2022-08-28T23:00:44.120Z,100283.72
2022-08-28T23:03:13.303Z,100294.03
2022-08-28T23:05:42.484Z,100292.31
2022-08-28T23:08:11.693Z,100292.41
2022-08-28T23:10:57.926Z,100275.56
2022-08-28T23:13:29.974Z,100301.41
2022-08-28T23:15:59.224Z,100276.28
2022-08-28T23:18:28.516Z,100272.47
2022-08-28T23:20:59.811Z,100282.53
2022-08-28T23:23:29.270Z,100290.19
2022-08-28T23:25:58.471Z,100264.44
2022-08-28T23:28:29.079Z,100297.50
2022-08-28T23:30:59.212Z,100235.75
2022-08-28T23:33:28.450Z,100284.66
2022-08-28T23:35:57.609Z,100295.88
2022-08-28T23:38:26.987Z,100277.31
2022-08-28T23:40:56.580Z,100279.06
2022-08-28T23:43:26.002Z,100257.50
2022-08-28T23:45:56.728Z,100255.72
2022-08-28T23:48:26.628Z,100279.72
2022-08-28T23:50:56.093Z,100191.94
2022-08-28T23:53:25.246Z,100286.88
2022-08-28T23:55:55.699Z,100263.13
2022-08-28T23:58:24.897Z,100255.94
